Time;durP1;ratioP1;P1;durP2;ratioP2;P2;SDS_P1;SDS_P2;PMS_P1;PMS_P2;Temp;Humidity;BMP_temperature;BMP_pressure;BME280_temperature;BME280_humidity;BME280_pressure;Samples;Min_cycle;Max_cycle;Signal;HPM_P1;HPM_P2
2023/05/29 00:00:20;;;;;;;6.80;2.93;;;10.70;99.90;;;;;;5072421;28;20374;-68
2023/05/29 00:02:47;;;;;;;4.50;2.43;;;10.70;99.90;;;;;;5073002;28;20391;-71
2023/05/29 00:05:13;;;;;;;13.47;3.03;;;10.70;99.90;;;;;;5073523;28;20367;-68
2023/05/29 00:07:40;;;;;;;9.97;3.53;;;10.60;99.90;;;;;;5073472;28;20363;-68
2023/05/29 00:10:07;;;;;;;6.53;2.60;;;10.60;99.90;;;;;;5071700;28;20876;-74
2023/05/29 00:12:33;;;;;;;6.57;3.10;;;10.60;99.90;;;;;;5073281;28;20400;-72
2023/05/29 00:14:59;;;;;;;12.30;3.47;;;10.50;99.90;;;;;;5073306;28;20440;-67
2023/05/29 00:17:25;;;;;;;9.30;3.00;;;10.50;99.90;;;;;;5073280;28;20425;-70
2023/05/29 00:19:51;;;;;;;9.03;3.23;;;10.60;99.90;;;;;;5072911;28;20396;-72
2023/05/29 00:22:17;;;;;;;15.30;4.10;;;10.50;99.90;;;;;;5072217;28;20379;-70
2023/05/29 00:24:43;;;;;;;8.80;3.30;;;10.50;99.90;;;;;;5072118;28;20180;-70
2023/05/29 00:27:09;;;;;;;6.13;3.50;;;10.40;99.90;;;;;;5073128;28;20396;-71
2023/05/29 00:29:37;;;;;;;9.67;2.80;;;10.50;99.90;;;;;;5073224;28;20168;-70
2023/05/29 00:32:06;;;;;;;9.07;3.30;;;10.40;99.90;;;;;;5072122;28;20436;-70
2023/05/29 00:34:32;;;;;;;8.63;2.83;;;10.40;99.90;;;;;;5072986;28;20453;-70
2023/05/29 00:36:58;;;;;;;9.20;3.10;;;10.30;99.90;;;;;;5072971;28;20400;-68
2023/05/29 00:39:24;;;;;;;8.80;3.30;;;10.30;99.90;;;;;;5072815;28;20531;-69
2023/05/29 00:41:50;;;;;;;6.60;3.03;;;10.30;99.90;;;;;;5071380;28;20451;-67
2023/05/29 00:44:20;;;;;;;13.93;3.40;;;10.30;99.90;;;;;;5072909;28;20184;-67
2023/05/29 00:46:48;;;;;;;8.73;3.30;;;10.30;99.90;;;;;;5072889;28;20922;-70
2023/05/29 00:49:14;;;;;;;9.97;2.90;;;10.20;99.90;;;;;;5072838;28;20808;-67
2023/05/29 00:51:42;;;;;;;11.27;3.90;;;10.20;99.90;;;;;;5071912;28;20381;-70
2023/05/29 00:54:10;;;;;;;11.43;3.30;;;10.20;99.90;;;;;;5072808;28;20407;-67
2023/05/29 00:56:36;;;;;;;10.20;4.47;;;10.20;99.90;;;;;;5071722;28;20407;-68
2023/05/29 00:59:02;;;;;;;8.93;3.10;;;10.20;99.90;;;;;;5072440;28;20423;-70
2023/05/29 01:01:31;;;;;;;6.80;2.87;;;10.10;99.90;;;;;;5071874;28;20370;-68
2023/05/29 01:03:57;;;;;;;8.97;2.93;;;10.10;99.90;;;;;;5072910;28;20412;-67
2023/05/29 01:06:23;;;;;;;12.40;3.83;;;10.00;99.90;;;;;;5073068;28;20709;-70
2023/05/29 01:08:49;;;;;;;11.53;3.80;;;10.00;99.90;;;;;;5072886;28;20375;-68
2023/05/29 01:11:47;;;;;;;11.63;3.40;;;10.00;99.90;;;;;;5070953;28;20422;-68
2023/05/29 01:14:25;;;;;;;13.63;4.40;;;10.00;99.90;;;;;;5054639;28;20687;-70
2023/05/29 01:17:11;;;;;;;9.03;3.23;;;10.00;99.90;;;;;;5076411;28;20371;-67
2023/05/29 01:19:58;;;;;;;5.23;3.03;;;9.90;99.90;;;;;;5076257;28;20424;-68
2023/05/29 01:22:35;;;;;;;16.13;4.00;;;9.90;99.90;;;;;;5075510;28;20397;-67
2023/05/29 01:25:18;;;;;;;16.87;3.80;;;9.90;99.90;;;;;;5076036;28;20453;-68
2023/05/29 01:27:47;;;;;;;6.93;3.20;;;9.90;99.90;;;;;;5075499;28;20386;-70
2023/05/29 01:30:14;;;;;;;11.67;3.53;;;9.80;99.90;;;;;;5075269;28;20397;-71
2023/05/29 01:32:42;;;;;;;10.70;3.20;;;9.80;99.90;;;;;;5075911;28;20846;-70
2023/05/29 01:35:08;;;;;;;10.73;3.70;;;9.70;99.90;;;;;;5075462;28;20378;-70
2023/05/29 01:37:34;;;;;;;11.47;3.80;;;9.70;99.90;;;;;;5075795;28;20412;-68
2023/05/29 01:40:01;;;;;;;10.47;3.50;;;9.70;99.90;;;;;;5075738;28;20717;-71
2023/05/29 01:42:28;;;;;;;10.87;3.40;;;9.60;99.90;;;;;;5075129;28;20206;-68
2023/05/29 01:44:56;;;;;;;15.07;3.03;;;9.50;99.90;;;;;;5074755;28;20462;-67
2023/05/29 01:47:23;;;;;;;11.13;3.83;;;9.50;99.90;;;;;;5075705;28;20454;-70
2023/05/29 01:49:51;;;;;;;6.60;2.80;;;9.50;99.90;;;;;;5075002;28;20383;-66
2023/05/29 01:52:17;;;;;;;4.57;2.70;;;9.50;99.90;;;;;;5074100;28;20459;-68
2023/05/29 01:54:43;;;;;;;13.97;4.70;;;9.50;99.90;;;;;;5075688;28;20872;-68
2023/05/29 01:57:09;;;;;;;9.97;3.00;;;9.40;99.90;;;;;;5075707;28;20419;-65
2023/05/29 01:59:37;;;;;;;10.43;3.70;;;9.40;99.90;;;;;;5075306;28;20447;-68
2023/05/29 02:02:08;;;;;;;9.03;3.00;;;9.40;99.90;;;;;;5074559;28;20371;-65
2023/05/29 02:04:34;;;;;;;14.00;3.73;;;9.40;99.90;;;;;;5075340;28;20412;-67
2023/05/29 02:07:00;;;;;;;8.50;3.40;;;9.30;99.90;;;;;;5075234;28;20407;-68
2023/05/29 02:09:26;;;;;;;12.77;4.90;;;9.30;99.90;;;;;;5074366;28;20178;-68
2023/05/29 02:11:52;;;;;;;6.20;2.93;;;9.30;99.90;;;;;;5074321;28;20882;-70
2023/05/29 02:14:18;;;;;;;7.57;3.60;;;9.30;99.90;;;;;;5075288;28;20823;-70
2023/05/29 02:16:44;;;;;;;12.97;4.60;;;9.30;99.90;;;;;;5075345;28;20178;-67
2023/05/29 02:19:10;;;;;;;12.43;4.03;;;9.20;99.90;;;;;;5075063;28;20466;-66
2023/05/29 02:21:42;;;;;;;13.60;4.27;;;9.20;99.90;;;;;;5073942;28;20391;-71
2023/05/29 02:24:07;;;;;;;12.33;3.70;;;9.10;99.90;;;;;;5073459;28;20965;-66
2023/05/29 02:26:40;;;;;;;6.70;2.77;;;9.10;99.90;;;;;;5074142;28;20464;-70
2023/05/29 02:29:05;;;;;;;10.80;4.50;;;9.10;99.90;;;;;;5075157;28;20163;-70
2023/05/29 02:31:31;;;;;;;16.03;3.73;;;9.10;99.90;;;;;;5074052;28;20389;-66
2023/05/29 02:33:57;;;;;;;7.17;3.13;;;9.10;99.90;;;;;;5074671;28;20193;-68
2023/05/29 02:36:23;;;;;;;7.37;3.90;;;9.10;99.90;;;;;;5074980;28;20418;-65
2023/05/29 02:38:48;;;;;;;11.57;3.33;;;9.10;99.90;;;;;;5074711;28;20200;-70
2023/05/29 02:41:14;;;;;;;10.57;3.80;;;9.10;99.90;;;;;;5072868;28;20215;-68
2023/05/29 02:43:40;;;;;;;7.47;3.43;;;9.10;99.90;;;;;;5074163;28;20593;-69
2023/05/29 02:46:05;;;;;;;14.50;4.47;;;9.10;99.90;;;;;;5073272;28;20566;-68
2023/05/29 02:48:31;;;;;;;21.13;3.47;;;9.00;99.90;;;;;;5074574;28;20213;-64
2023/05/29 02:50:57;;;;;;;11.60;3.30;;;9.00;99.90;;;;;;5073726;28;20177;-70
2023/05/29 02:53:22;;;;;;;9.30;3.40;;;9.00;99.90;;;;;;5074457;28;20193;-68
2023/05/29 02:55:49;;;;;;;14.47;3.97;;;8.90;99.90;;;;;;5074334;28;20244;-68
2023/05/29 02:58:16;;;;;;;9.33;2.97;;;8.90;99.90;;;;;;5073190;28;20208;-67
2023/05/29 03:00:42;;;;;;;7.20;3.53;;;8.80;99.90;;;;;;5072361;28;20397;-72
2023/05/29 03:03:08;;;;;;;12.20;3.87;;;8.80;99.90;;;;;;5074096;28;20497;-64
2023/05/29 03:05:34;;;;;;;16.73;4.13;;;8.80;99.90;;;;;;5074254;28;20933;-68
2023/05/29 03:08:00;;;;;;;7.40;3.43;;;8.80;99.90;;;;;;5074162;28;20401;-68
2023/05/29 03:10:25;;;;;;;19.20;3.67;;;8.80;99.90;;;;;;5073313;28;20252;-68
2023/05/29 03:12:51;;;;;;;6.10;3.07;;;8.80;99.90;;;;;;5074172;28;20417;-68
2023/05/29 03:15:19;;;;;;;10.83;3.73;;;8.80;99.90;;;;;;5074209;28;20209;-64
2023/05/29 03:17:46;;;;;;;6.27;3.23;;;8.70;99.90;;;;;;5072692;28;20271;-65
2023/05/29 03:20:12;;;;;;;5.50;3.37;;;8.70;99.90;;;;;;5073038;28;20892;-67
2023/05/29 03:22:37;;;;;;;12.13;3.50;;;8.70;99.90;;;;;;5074072;28;20473;-65
2023/05/29 03:25:03;;;;;;;9.57;3.30;;;8.70;99.90;;;;;;5073740;28;20428;-65
2023/05/29 03:27:30;;;;;;;7.13;3.50;;;8.80;99.90;;;;;;5074034;28;20205;-65
2023/05/29 03:29:57;;;;;;;10.37;3.80;;;8.70;99.90;;;;;;5073571;28;20936;-68
2023/05/29 03:32:23;;;;;;;11.03;3.53;;;8.70;99.90;;;;;;5072717;28;20409;-68
2023/05/29 03:34:49;;;;;;;15.87;4.20;;;8.70;99.90;;;;;;5072580;28;20863;-68
2023/05/29 03:37:15;;;;;;;8.50;3.30;;;8.80;99.90;;;;;;5073769;28;20182;-65
2023/05/29 03:39:40;;;;;;;13.57;3.80;;;8.80;99.90;;;;;;5073634;28;20280;-64
2023/05/29 03:42:06;;;;;;;10.70;2.80;;;8.80;99.90;;;;;;5072741;28;20488;-66
2023/05/29 03:44:32;;;;;;;7.30;3.47;;;8.80;99.90;;;;;;5073433;28;20554;-68
2023/05/29 03:46:57;;;;;;;10.50;4.13;;;8.90;99.90;;;;;;5073702;28;20227;-68
2023/05/29 03:49:23;;;;;;;10.93;4.43;;;8.80;99.90;;;;;;5072033;28;20180;-67
2023/05/29 03:51:50;;;;;;;14.80;3.63;;;8.80;99.90;;;;;;5071933;28;20208;-64
2023/05/29 03:54:16;;;;;;;19.63;6.30;;;8.80;99.90;;;;;;5072032;28;20235;-70
2023/05/29 03:56:41;;;;;;;21.30;5.53;;;8.80;99.90;;;;;;5073349;28;20382;-66
2023/05/29 03:59:07;;;;;;;21.43;4.00;;;8.80;99.90;;;;;;5073516;28;20869;-65
2023/05/29 04:01:33;;;;;;;10.70;3.97;;;8.90;99.90;;;;;;5072641;28;20170;-67
2023/05/29 04:03:59;;;;;;;13.07;4.00;;;8.90;99.90;;;;;;5073410;28;20397;-65
2023/05/29 04:06:25;;;;;;;9.33;4.50;;;8.90;99.90;;;;;;5073178;28;20166;-68
2023/05/29 04:08:51;;;;;;;8.60;3.70;;;9.00;99.90;;;;;;5071875;28;20884;-65
2023/05/29 04:11:17;;;;;;;14.30;4.40;;;9.00;99.90;;;;;;5072679;28;20422;-65
2023/05/29 04:13:42;;;;;;;7.90;4.17;;;9.10;99.90;;;;;;5073247;28;20225;-70
2023/05/29 04:16:08;;;;;;;16.03;3.80;;;9.10;99.90;;;;;;5073359;28;20174;-67
2023/05/29 04:18:34;;;;;;;19.53;4.00;;;9.30;99.90;;;;;;5073255;28;20197;-67
2023/05/29 04:21:00;;;;;;;15.73;4.13;;;9.40;99.90;;;;;;5072338;28;20294;-68
2023/05/29 04:23:25;;;;;;;8.90;3.93;;;9.40;99.90;;;;;;5072222;28;20290;-67
2023/05/29 04:25:52;;;;;;;16.07;5.70;;;9.40;99.90;;;;;;5073222;28;20390;-70
2023/05/29 04:28:21;;;;;;;6.03;3.77;;;9.50;99.90;;;;;;5072855;28;20184;-67
2023/05/29 04:30:47;;;;;;;14.23;3.70;;;9.50;99.90;;;;;;5072092;28;20785;-69
2023/05/29 04:33:14;;;;;;;14.77;5.20;;;9.50;99.90;;;;;;5073052;28;20425;-71
2023/05/29 04:35:42;;;;;;;12.70;3.67;;;9.50;99.90;;;;;;5073049;28;20718;-72
2023/05/29 04:38:09;;;;;;;14.67;3.60;;;9.60;99.90;;;;;;5072966;28;20522;-68
2023/05/29 04:40:36;;;;;;;15.83;4.03;;;9.60;99.90;;;;;;5071293;28;20428;-71
2023/05/29 04:43:05;;;;;;;14.43;4.10;;;9.60;99.90;;;;;;5072838;28;20409;-70
2023/05/29 04:45:30;;;;;;;20.27;4.97;;;9.60;99.90;;;;;;5072760;28;20378;-71
2023/05/29 04:47:56;;;;;;;18.83;4.53;;;9.60;99.90;;;;;;5075300;28;20422;-71
2023/05/29 04:50:26;;;;;;;15.30;3.50;;;9.60;99.90;;;;;;5074598;28;20582;-68
2023/05/29 04:52:51;;;;;;;13.40;3.83;;;9.70;99.90;;;;;;5076613;28;20273;-70
2023/05/29 04:55:17;;;;;;;13.87;3.93;;;9.80;99.90;;;;;;5076666;28;20847;-70
2023/05/29 04:57:43;;;;;;;13.03;4.70;;;9.80;99.90;;;;;;5075904;28;20651;-67
2023/05/29 05:00:11;;;;;;;14.30;4.67;;;9.80;99.90;;;;;;5075313;28;20219;-70
2023/05/29 05:02:37;;;;;;;17.83;5.17;;;9.90;99.90;;;;;;5076269;28;20556;-68
2023/05/29 05:05:03;;;;;;;12.23;4.13;;;9.90;99.90;;;;;;5076188;28;20753;-72
2023/05/29 05:07:29;;;;;;;17.87;4.83;;;10.00;99.90;;;;;;5076459;28;20379;-67
2023/05/29 05:09:58;;;;;;;20.87;4.23;;;10.00;99.90;;;;;;5076278;28;20374;-68
2023/05/29 05:12:23;;;;;;;10.47;3.67;;;10.00;99.90;;;;;;5075650;28;20231;-70
2023/05/29 05:14:49;;;;;;;9.30;4.57;;;10.10;99.90;;;;;;5076497;28;20763;-70
2023/05/29 05:17:15;;;;;;;21.30;4.17;;;10.10;99.90;;;;;;5075550;28;20250;-70
2023/05/29 05:19:41;;;;;;;14.50;3.63;;;10.20;99.90;;;;;;5076284;28;20194;-68
2023/05/29 05:22:07;;;;;;;13.83;4.50;;;10.20;99.90;;;;;;5073666;28;20420;-71
2023/05/29 05:24:32;;;;;;;9.50;3.53;;;10.20;99.90;;;;;;5076085;28;20206;-67
2023/05/29 05:26:58;;;;;;;13.63;3.77;;;10.30;99.90;;;;;;5076254;28;20174;-70
2023/05/29 05:29:24;;;;;;;8.23;4.00;;;10.30;99.90;;;;;;5076171;28;20297;-67
2023/05/29 05:31:49;;;;;;;11.60;4.93;;;10.40;99.90;;;;;;5073874;28;20174;-71
2023/05/29 05:34:15;;;;;;;17.53;4.33;;;10.40;99.90;;;;;;5075219;28;20292;-68
2023/05/29 05:36:41;;;;;;;21.67;4.43;;;10.40;99.90;;;;;;5076031;28;20174;-67
2023/05/29 05:39:06;;;;;;;14.70;3.90;;;10.40;99.90;;;;;;5075405;28;20296;-68
2023/05/29 05:41:32;;;;;;;10.57;4.10;;;10.40;99.90;;;;;;5074958;28;20170;-71
2023/05/29 05:43:58;;;;;;;13.77;4.10;;;10.50;99.90;;;;;;5075969;28;20194;-71
2023/05/29 05:46:23;;;;;;;13.30;5.27;;;10.50;99.90;;;;;;5076016;28;20648;-68
2023/05/29 05:48:50;;;;;;;15.30;5.97;;;10.50;99.90;;;;;;5076130;28;20196;-68
2023/05/29 05:51:15;;;;;;;15.63;4.13;;;10.60;99.90;;;;;;5073835;28;20186;-71
2023/05/29 05:53:41;;;;;;;11.63;3.87;;;10.60;99.90;;;;;;5075561;28;20429;-71
2023/05/29 05:56:07;;;;;;;23.83;4.23;;;10.60;99.90;;;;;;5075182;28;20261;-67
2023/05/29 05:58:35;;;;;;;13.50;4.43;;;10.60;99.90;;;;;;5075482;28;20659;-67
2023/05/29 06:01:01;;;;;;;17.00;4.87;;;10.70;99.90;;;;;;5074671;28;20630;-67
2023/05/29 06:03:27;;;;;;;19.83;4.53;;;10.70;99.90;;;;;;5075227;28;20402;-70
2023/05/29 06:05:54;;;;;;;14.03;5.37;;;10.80;99.90;;;;;;5075389;28;20173;-68
2023/05/29 06:08:20;;;;;;;17.90;4.40;;;10.90;99.90;;;;;;5074739;28;20422;-67
2023/05/29 06:10:46;;;;;;;12.63;4.33;;;11.00;99.90;;;;;;5074554;28;20411;-71
2023/05/29 06:13:12;;;;;;;11.70;4.53;;;11.10;99.90;;;;;;5074857;28;20927;-71
2023/05/29 06:15:37;;;;;;;9.63;4.53;;;11.10;99.90;;;;;;5074443;28;20190;-72
2023/05/29 06:18:05;;;;;;;14.93;4.70;;;11.10;99.90;;;;;;5075291;28;20426;-70
2023/05/29 06:20:30;;;;;;;10.50;3.43;;;11.20;99.90;;;;;;5074236;28;20170;-68
2023/05/29 06:22:56;;;;;;;10.00;3.80;;;11.30;99.90;;;;;;5075115;28;20399;-68
2023/05/29 06:25:22;;;;;;;9.73;4.07;;;11.30;99.90;;;;;;5075139;28;20630;-67
2023/05/29 06:27:48;;;;;;;9.80;3.60;;;11.30;99.90;;;;;;5074891;28;20331;-68
2023/05/29 06:30:15;;;;;;;12.33;4.50;;;11.30;99.90;;;;;;5072596;28;20205;-71
2023/05/29 06:32:40;;;;;;;9.57;3.57;;;11.40;99.90;;;;;;5075234;28;20253;-68
2023/05/29 06:35:07;;;;;;;16.03;4.87;;;11.40;99.90;;;;;;5075004;28;20401;-71
2023/05/29 06:37:32;;;;;;;22.60;4.07;;;11.50;99.90;;;;;;5074790;28;20170;-72
2023/05/29 06:39:58;;;;;;;22.33;4.90;;;11.60;99.90;;;;;;5074469;28;20860;-72
2023/05/29 06:42:24;;;;;;;10.20;3.03;;;11.70;99.90;;;;;;5074097;28;20194;-68
2023/05/29 06:44:50;;;;;;;7.90;3.47;;;11.70;99.90;;;;;;5074612;28;20878;-70
2023/05/29 06:47:16;;;;;;;12.30;4.20;;;11.80;99.90;;;;;;5073480;28;20402;-68
2023/05/29 06:49:41;;;;;;;13.67;4.73;;;11.90;99.90;;;;;;5074550;28;20200;-68
2023/05/29 06:52:07;;;;;;;12.53;4.13;;;11.90;99.90;;;;;;5073598;28;20698;-68
2023/05/29 06:54:33;;;;;;;10.17;3.70;;;12.00;99.90;;;;;;5074398;28;20559;-67
2023/05/29 06:56:58;;;;;;;10.00;3.63;;;12.10;99.90;;;;;;5074472;28;20174;-68
2023/05/29 06:59:24;;;;;;;7.70;3.33;;;12.10;99.90;;;;;;5074317;28;20194;-69
2023/05/29 07:01:50;;;;;;;15.73;4.17;;;12.10;99.90;;;;;;5072909;28;20194;-67
2023/05/29 07:04:15;;;;;;;14.80;4.17;;;12.10;99.90;;;;;;5073972;28;20193;-67
2023/05/29 07:06:41;;;;;;;18.30;3.80;;;12.20;99.90;;;;;;5073985;28;20163;-68
2023/05/29 07:09:07;;;;;;;13.07;4.37;;;12.30;99.90;;;;;;5074115;28;20166;-68
2023/05/29 07:11:33;;;;;;;12.40;3.97;;;12.40;99.90;;;;;;5073011;28;20531;-68
2023/05/29 07:13:58;;;;;;;15.17;3.77;;;12.50;99.90;;;;;;5073916;28;20182;-69
2023/05/29 07:16:25;;;;;;;11.70;4.63;;;12.60;99.90;;;;;;5073211;28;20182;-68
2023/05/29 07:18:51;;;;;;;11.23;3.63;;;12.60;99.90;;;;;;5073918;28;20202;-71
2023/05/29 07:21:18;;;;;;;13.20;4.73;;;12.60;99.90;;;;;;5073255;28;20390;-71
2023/05/29 07:23:45;;;;;;;18.33;4.73;;;12.60;99.90;;;;;;5073427;28;20216;-71
2023/05/29 07:26:11;;;;;;;20.13;5.00;;;12.70;99.90;;;;;;5073708;28;20388;-72
2023/05/29 07:28:37;;;;;;;15.23;3.70;;;12.70;99.90;;;;;;5072953;28;20419;-71
2023/05/29 07:31:03;;;;;;;15.20;4.50;;;12.70;99.90;;;;;;5072956;28;20607;-71
2023/05/29 07:33:28;;;;;;;10.00;3.90;;;12.80;99.90;;;;;;5073049;28;20202;-68
2023/05/29 07:35:54;;;;;;;14.40;4.13;;;12.80;99.90;;;;;;5073932;28;20171;-68
2023/05/29 07:38:21;;;;;;;19.93;4.23;;;12.90;99.90;;;;;;5073574;28;20684;-71
2023/05/29 07:40:46;;;;;;;9.17;3.37;;;12.90;99.90;;;;;;5072327;28;20378;-68
2023/05/29 07:43:12;;;;;;;14.37;3.97;;;12.90;99.90;;;;;;5073701;28;20844;-70
2023/05/29 07:45:38;;;;;;;14.83;4.43;;;13.10;99.90;;;;;;5073732;28;20661;-71
2023/05/29 07:48:04;;;;;;;10.27;3.73;;;13.20;99.90;;;;;;5073593;28;20166;-69
2023/05/29 07:50:29;;;;;;;9.00;4.20;;;13.30;99.90;;;;;;5071684;28;20563;-71
2023/05/29 07:52:58;;;;;;;11.70;3.27;;;13.50;99.90;;;;;;5073604;28;20192;-71
2023/05/29 07:55:23;;;;;;;11.50;3.77;;;13.70;99.90;;;;;;5073710;28;20174;-71
2023/05/29 07:57:49;;;;;;;18.27;3.90;;;13.70;99.90;;;;;;5073358;28;20379;-68
2023/05/29 08:00:15;;;;;;;7.80;3.27;;;13.90;99.90;;;;;;5070805;28;20170;-72
2023/05/29 08:02:42;;;;;;;17.17;4.10;;;14.10;99.90;;;;;;5073265;28;20240;-71
2023/05/29 08:05:08;;;;;;;7.30;3.63;;;14.20;99.90;;;;;;5073524;28;20491;-68
2023/05/29 08:07:35;;;;;;;9.43;3.90;;;14.20;99.90;;;;;;5073521;28;20397;-68
2023/05/29 08:10:01;;;;;;;11.57;4.93;;;14.30;99.90;;;;;;5073172;28;20436;-69
2023/05/29 08:12:26;;;;;;;14.00;3.13;;;14.40;99.90;;;;;;5072441;28;20415;-69
2023/05/29 08:14:52;;;;;;;14.73;3.97;;;14.50;99.90;;;;;;5073265;28;20247;-71
2023/05/29 08:17:18;;;;;;;15.17;4.40;;;14.70;99.90;;;;;;5072776;28;20174;-68
2023/05/29 08:19:44;;;;;;;7.17;2.93;;;14.70;99.90;;;;;;5073155;28;20229;-68
2023/05/29 08:22:13;;;;;;;11.13;3.20;;;14.80;99.90;;;;;;5073745;28;20169;-68
2023/05/29 08:24:39;;;;;;;10.73;3.23;;;14.80;99.90;;;;;;5077321;28;20182;-72
2023/05/29 08:27:05;;;;;;;10.77;3.40;;;14.80;99.90;;;;;;5076339;28;20920;-69
2023/05/29 08:29:31;;;;;;;7.93;3.47;;;15.00;99.90;;;;;;5077415;28;20404;-68
2023/05/29 08:31:57;;;;;;;16.20;4.13;;;15.00;99.90;;;;;;5076442;28;20186;-70
2023/05/29 08:34:22;;;;;;;9.30;3.20;;;15.00;99.90;;;;;;5076374;28;20201;-69
2023/05/29 08:36:51;;;;;;;14.70;4.03;;;14.90;99.90;;;;;;5076605;28;20178;-68
2023/05/29 08:39:17;;;;;;;15.03;4.47;;;15.10;99.90;;;;;;5077012;28;20674;-70
2023/05/29 08:42:07;;;;;;;8.40;3.33;;;15.30;99.90;;;;;;5076070;28;20408;-70
2023/05/29 08:44:33;;;;;;;13.70;3.37;;;15.50;99.90;;;;;;5076838;28;20412;-71
2023/05/29 08:47:06;;;;;;;14.13;4.20;;;15.60;99.90;;;;;;5075821;28;20473;-68
2023/05/29 08:49:41;;;;;;;7.40;2.87;;;15.90;99.90;;;;;;5076956;28;20436;-71
2023/05/29 08:52:22;;;;;;;9.20;2.53;;;16.10;99.90;;;;;;5075045;28;20436;-71
2023/05/29 08:54:48;;;;;;;16.53;4.00;;;16.20;99.90;;;;;;5076249;28;20400;-69
2023/05/29 08:57:14;;;;;;;7.73;3.20;;;16.50;99.90;;;;;;5076710;28;20962;-69
2023/05/29 08:59:42;;;;;;;8.90;3.00;;;16.70;99.90;;;;;;5076613;28;20475;-71
2023/05/29 09:02:09;;;;;;;11.03;3.27;;;16.90;99.90;;;;;;5074401;28;20182;-70
2023/05/29 09:04:35;;;;;;;9.47;3.07;;;17.10;99.90;;;;;;5076442;28;20416;-71
2023/05/29 09:07:02;;;;;;;12.63;3.37;;;17.20;99.90;;;;;;5074332;28;20771;-69
2023/05/29 09:09:29;;;;;;;16.30;3.27;;;17.40;99.90;;;;;;5076460;28;20166;-68
2023/05/29 09:11:58;;;;;;;9.47;3.10;;;17.30;99.90;;;;;;5075295;28;20769;-71
2023/05/29 09:14:37;;;;;;;6.80;3.07;;;17.10;99.90;;;;;;5076176;28;20442;-70
2023/05/29 09:17:05;;;;;;;5.73;2.53;;;17.10;99.90;;;;;;5076116;28;20803;-70
2023/05/29 09:19:41;;;;;;;5.97;2.57;;;17.50;99.90;;;;;;5076202;28;20539;-71
2023/05/29 09:22:55;;;;;;;5.90;2.73;;;17.80;99.90;;;;;;5075447;28;20403;-69
2023/05/29 09:24:59;;;;;;;9.17;2.27;;;18.10;99.90;;;;;;5067850;28;20451;-71
2023/05/29 09:27:26;;;;;;;8.37;2.30;;;18.30;99.90;;;;;;5076201;28;20994;-71
2023/05/29 09:29:51;;;;;;;16.40;3.03;;;18.40;99.90;;;;;;5075760;28;20422;-70
2023/05/29 09:32:18;;;;;;;6.20;1.90;;;18.00;99.90;;;;;;5073938;28;20409;-69
2023/05/29 09:34:45;;;;;;;5.60;2.30;;;18.00;99.90;;;;;;5075839;28;20265;-71
2023/05/29 09:37:13;;;;;;;7.97;2.30;;;18.20;99.90;;;;;;5076046;28;20479;-70
2023/05/29 09:39:41;;;;;;;7.07;2.60;;;18.50;99.90;;;;;;5075302;28;20814;-71
2023/05/29 09:42:08;;;;;;;6.40;2.90;;;18.90;99.90;;;;;;5074957;28;20499;-70
2023/05/29 09:44:34;;;;;;;9.63;3.20;;;19.40;99.90;;;;;;5075342;28;20479;-71
2023/05/29 09:47:03;;;;;;;7.63;2.07;;;19.80;99.90;;;;;;5075653;28;20881;-72
2023/05/29 09:49:31;;;;;;;6.83;2.37;;;19.80;99.90;;;;;;5075530;28;20393;-71
2023/05/29 09:52:01;;;;;;;5.30;2.03;;;20.30;99.90;;;;;;5074860;28;20405;-69
2023/05/29 09:54:30;;;;;;;4.97;2.20;;;20.80;99.90;;;;;;5075698;28;20427;-72
2023/05/29 09:56:58;;;;;;;4.40;2.40;;;21.10;99.90;;;;;;5075719;28;20905;-71
2023/05/29 09:59:24;;;;;;;5.40;3.47;;;21.40;99.90;;;;;;5075387;28;20448;-71
2023/05/29 10:02:04;;;;;;;6.97;2.33;;;21.40;99.90;;;;;;5073837;28;20427;-71
2023/05/29 10:04:36;;;;;;;9.67;2.60;;;21.50;99.90;;;;;;5074729;28;20423;-71
2023/05/29 10:07:08;;;;;;;5.10;2.27;;;21.50;99.90;;;;;;5074975;28;20397;-71
2023/05/29 10:09:38;;;;;;;5.23;2.37;;;21.50;99.90;;;;;;5075264;28;20404;-71
2023/05/29 10:12:08;;;;;;;5.73;2.40;;;21.40;99.90;;;;;;5074373;28;20396;-71
2023/05/29 10:14:35;;;;;;;5.33;2.10;;;21.20;99.90;;;;;;5075222;28;20973;-71
2023/05/29 10:17:06;;;;;;;7.67;2.20;;;21.30;99.90;;;;;;5075181;28;20428;-71
2023/05/29 10:19:33;;;;;;;9.13;2.47;;;21.30;99.90;;;;;;5074913;28;20455;-72
2023/05/29 10:22:01;;;;;;;5.47;2.30;;;21.50;99.90;;;;;;5073473;28;20876;-72
2023/05/29 10:24:31;;;;;;;6.17;2.77;;;21.80;99.90;;;;;;5074785;28;20486;-71
2023/05/29 10:26:58;;;;;;;6.17;2.63;;;21.70;99.90;;;;;;5073749;28;20412;-72
2023/05/29 10:29:34;;;;;;;5.27;3.00;;;21.90;99.90;;;;;;5074132;28;20561;-71
2023/05/29 10:32:12;;;;;;;6.17;2.00;;;22.10;99.90;;;;;;5074028;28;20406;-73
2023/05/29 10:34:40;;;;;;;7.47;2.50;;;21.90;99.90;;;;;;5075144;28;20435;-72
2023/05/29 10:37:23;;;;;;;7.87;2.60;;;22.00;99.90;;;;;;5078937;28;20428;-72
2023/05/29 10:39:49;;;;;;;3.87;2.10;;;22.60;99.90;;;;;;5093448;28;20485;-72
2023/05/29 10:42:42;;;;;;;5.80;2.40;;;23.00;99.90;;;;;;5093747;28;20423;-72
2023/05/29 10:45:07;;;;;;;4.50;2.43;;;23.40;99.90;;;;;;5090687;28;20173;-72
2023/05/29 10:47:33;;;;;;;5.03;2.07;;;23.90;99.90;;;;;;5093828;28;20395;-72
2023/05/29 10:50:03;;;;;;;4.07;2.17;;;24.20;99.90;;;;;;5094587;28;20404;-73
2023/05/29 10:52:33;;;;;;;4.90;1.80;;;24.10;99.90;;;;;;5085766;28;20174;-72
2023/05/29 10:55:00;;;;;;;7.80;2.50;;;24.30;99.90;;;;;;5074508;28;20807;-72
2023/05/29 10:57:26;;;;;;;5.00;2.40;;;24.20;99.90;;;;;;5074509;28;20832;-74
2023/05/29 11:00:06;;;;;;;12.30;2.57;;;23.40;99.90;;;;;;5073584;28;20809;-73
2023/05/29 11:02:37;;;;;;;5.90;2.53;;;23.30;99.90;;;;;;5072960;28;20428;-72
2023/05/29 11:05:19;;;;;;;4.10;2.90;;;23.50;99.90;;;;;;5074280;28;20408;-72
2023/05/29 11:07:56;;;;;;;9.90;2.30;;;23.60;99.90;;;;;;5074280;28;20396;-73
2023/05/29 11:10:47;;;;;;;2.80;2.60;;;22.90;99.90;;;;;;5072535;28;20428;-74
2023/05/29 11:13:33;;;;;;;6.77;1.77;;;22.80;99.90;;;;;;5074067;28;20444;-72
2023/05/29 11:16:09;;;;;;;6.30;2.33;;;22.70;99.90;;;;;;5073539;28;20397;-74
2023/05/29 11:18:40;;;;;;;6.30;2.83;;;22.60;99.90;;;;;;5073976;28;20516;-71
2023/05/29 11:21:30;;;;;;;9.60;7.83;;;22.00;99.90;;;;;;5073215;28;20885;-72
2023/05/29 11:23:58;;;;;;;6.20;2.30;;;22.40;99.90;;;;;;5073830;28;20442;-71
2023/05/29 11:26:27;;;;;;;7.67;2.40;;;23.30;99.90;;;;;;5073200;28;20411;-71
2023/05/29 11:28:52;;;;;;;5.87;3.30;;;23.60;99.90;;;;;;5073959;28;20397;-71
2023/05/29 11:31:22;;;;;;;8.67;2.27;;;23.50;99.90;;;;;;5072576;28;20939;-73
2023/05/29 11:33:50;;;;;;;8.07;1.80;;;23.60;99.90;;;;;;5072572;28;20189;-73
2023/05/29 11:36:19;;;;;;;3.40;2.23;;;23.80;99.90;;;;;;5074049;28;20873;-72
2023/05/29 11:38:47;;;;;;;5.87;2.63;;;24.40;99.90;;;;;;5073914;28;20448;-73
2023/05/29 11:41:13;;;;;;;5.20;2.53;;;24.80;99.90;;;;;;5072966;28;20397;-71
2023/05/29 11:43:39;;;;;;;9.63;2.60;;;25.10;99.90;;;;;;5073678;28;20417;-72
2023/05/29 11:46:18;;;;;;;6.17;2.30;;;24.70;99.90;;;;;;5072841;28;20524;-74
2023/05/29 11:48:48;;;;;;;3.50;1.90;;;25.40;99.90;;;;;;5073362;28;20300;-73
2023/05/29 11:51:14;;;;;;;10.70;2.83;;;26.00;99.90;;;;;;5072705;28;20826;-72
2023/05/29 11:53:43;;;;;;;10.07;2.93;;;26.20;99.90;;;;;;5073461;28;20901;-73
2023/05/29 11:56:10;;;;;;;3.00;1.90;;;26.00;99.90;;;;;;5073286;28;20399;-73
2023/05/29 11:58:40;;;;;;;4.87;2.17;;;25.80;99.90;;;;;;5073342;28;20448;-73
2023/05/29 12:01:10;;;;;;;5.43;2.07;;;25.60;99.90;;;;;;5071844;28;20432;-73
2023/05/29 12:03:42;;;;;;;5.80;2.20;;;25.20;99.90;;;;;;5073164;28;20503;-73
2023/05/29 12:06:11;;;;;;;8.07;2.53;;;25.20;99.90;;;;;;5072051;28;20958;-73
2023/05/29 12:08:38;;;;;;;6.63;2.23;;;25.00;99.90;;;;;;5073287;28;20423;-72
2023/05/29 12:11:04;;;;;;;8.80;1.80;;;25.00;99.90;;;;;;5071435;28;20416;-73
2023/05/29 12:13:30;;;;;;;7.77;2.13;;;25.30;99.90;;;;;;5073176;28;20428;-71
2023/05/29 12:16:02;;;;;;;5.60;2.40;;;25.70;99.90;;;;;;5072536;28;20411;-70
2023/05/29 12:18:29;;;;;;;4.93;2.53;;;26.10;99.90;;;;;;5072955;28;20451;-71
2023/05/29 12:21:02;;;;;;;5.17;2.20;;;26.70;99.90;;;;;;5072412;28;20408;-69
2023/05/29 12:23:29;;;;;;;5.37;2.17;;;27.10;99.90;;;;;;5072841;28;20412;-71
2023/05/29 12:25:55;;;;;;;3.90;1.87;;;27.00;99.90;;;;;;5072984;28;20399;-73
2023/05/29 12:28:21;;;;;;;3.70;1.70;;;27.10;99.90;;;;;;5071863;28;20412;-73
2023/05/29 12:30:49;;;;;;;4.30;1.87;;;26.90;99.90;;;;;;5072262;28;20412;-72
2023/05/29 12:33:34;;;;;;;5.33;1.83;;;27.30;99.90;;;;;;5072215;28;20543;-72
2023/05/29 12:36:08;;;;;;;5.83;2.40;;;27.10;99.90;;;;;;5073167;28;20397;-71
2023/05/29 12:38:50;;;;;;;6.60;2.53;;;27.10;99.90;;;;;;5073033;28;20463;-72
2023/05/29 12:41:29;;;;;;;3.87;1.90;;;26.60;99.90;;;;;;5072163;28;20404;-72
2023/05/29 12:43:56;;;;;;;8.33;2.50;;;26.20;99.90;;;;;;5072622;28;20416;-72
2023/05/29 12:46:23;;;;;;;5.10;1.70;;;25.80;99.90;;;;;;5071772;28;20434;-72
2023/05/29 12:48:49;;;;;;;4.90;2.07;;;25.00;99.90;;;;;;5072959;28;20404;-71